createdAt,value
2018-07-02T00:00:57.711Z,0.00
2018-07-02T00:01:57.552Z,0.00
2018-07-02T00:02:57.584Z,0.00
2018-07-02T00:03:57.406Z,0.00
2018-07-02T00:04:57.396Z,0.00
2018-07-02T00:05:57.262Z,0.00
2018-07-02T00:06:57.209Z,0.00
2018-07-02T00:07:57.119Z,0.00
2018-07-02T00:08:57.112Z,0.00
2018-07-02T00:09:56.928Z,0.00
2018-07-02T00:10:56.880Z,0.00
2018-07-02T00:11:56.800Z,0.00
2018-07-02T00:12:57.046Z,0.00
2018-07-02T00:13:56.639Z,0.00
2018-07-02T00:16:38.699Z,0.00
2018-07-02T00:17:38.749Z,0.00
2018-07-02T00:18:38.512Z,0.00
2018-07-02T00:19:38.453Z,0.00
2018-07-02T00:20:38.348Z,0.00
2018-07-02T00:21:38.401Z,0.00
2018-07-02T00:22:38.185Z,0.00
2018-07-02T00:23:38.180Z,0.00
2018-07-02T00:24:38.036Z,0.00
2018-07-02T00:25:38.088Z,0.00
2018-07-02T00:26:37.874Z,0.00
2018-07-02T00:27:37.917Z,0.00
2018-07-02T00:28:37.728Z,0.00
2018-07-02T00:29:37.694Z,0.00
2018-07-02T00:30:37.566Z,0.00
2018-07-02T00:31:37.605Z,0.00
2018-07-02T00:32:37.418Z,0.00
2018-07-02T00:33:37.417Z,0.00
2018-07-02T00:34:37.254Z,0.00
2018-07-02T00:37:19.687Z,0.00
2018-07-02T00:38:19.629Z,0.00
2018-07-02T00:39:19.521Z,0.00
2018-07-02T00:40:19.540Z,0.00
2018-07-02T00:41:19.347Z,0.00
2018-07-02T00:42:20.424Z,0.00
2018-07-02T00:43:19.195Z,0.00
2018-07-02T00:44:19.212Z,0.00
2018-07-02T00:45:19.030Z,0.00
2018-07-02T00:46:19.067Z,0.00
2018-07-02T00:47:18.912Z,0.00
2018-07-02T00:48:18.906Z,0.00
2018-07-02T00:49:18.739Z,0.00
2018-07-02T00:50:18.685Z,0.00
2018-07-02T00:51:18.569Z,0.00
2018-07-02T00:52:18.635Z,0.00
2018-07-02T00:53:18.416Z,0.00
2018-07-02T00:54:18.405Z,0.00
2018-07-02T00:55:18.289Z,0.00
2018-07-02T00:56:18.217Z,0.00
2018-07-02T00:57:18.100Z,0.00
2018-07-02T00:58:18.153Z,0.00
2018-07-02T00:59:17.936Z,0.00
2018-07-02T01:00:19.000Z,0.00
2018-07-02T01:01:17.806Z,0.00
2018-07-02T01:02:17.755Z,0.00
2018-07-02T01:03:17.659Z,0.00
2018-07-02T01:04:17.661Z,0.00
2018-07-02T01:05:17.495Z,0.00
2018-07-02T01:06:17.457Z,0.00
2018-07-02T01:07:17.315Z,0.00
2018-07-02T01:08:17.313Z,0.00
2018-07-02T01:09:17.156Z,0.00
2018-07-02T01:10:17.185Z,0.00
2018-07-02T01:11:16.994Z,0.00
2018-07-02T01:12:17.000Z,0.00
2018-07-02T01:13:16.854Z,0.00
2018-07-02T01:14:16.901Z,0.00
2018-07-02T01:15:16.685Z,0.00
2018-07-02T01:16:16.642Z,0.00
2018-07-02T01:17:16.525Z,0.00
2018-07-02T01:18:17.609Z,0.00
2018-07-02T01:19:16.376Z,0.00
2018-07-02T01:20:16.425Z,0.00
2018-07-02T01:21:16.231Z,0.00
2018-07-02T01:23:58.172Z,0.00
2018-07-02T01:24:58.130Z,0.00
2018-07-02T01:25:58.045Z,0.00
2018-07-02T01:26:58.038Z,0.00
2018-07-02T01:27:57.876Z,0.00
2018-07-02T01:28:57.851Z,0.00
2018-07-02T01:29:57.714Z,0.00
2018-07-02T01:30:57.699Z,0.00
2018-07-02T01:31:57.551Z,0.00
2018-07-02T01:32:57.566Z,0.00
2018-07-02T01:52:20.352Z,0.00
2018-07-02T01:53:20.177Z,0.00
2018-07-02T01:56:02.223Z,0.00
2018-07-02T01:57:03.884Z,0.00
2018-07-02T01:58:02.033Z,0.00
2018-07-02T01:59:06.034Z,0.00
2018-07-02T02:00:01.874Z,0.00
2018-07-02T02:01:04.051Z,0.00
2018-07-02T02:02:01.727Z,0.00
2018-07-02T02:03:01.804Z,0.00
2018-07-02T02:04:01.560Z,0.00
2018-07-02T02:05:01.576Z,0.00
2018-07-02T02:06:01.421Z,0.00
2018-07-02T02:07:01.375Z,0.00
2018-07-02T02:08:01.249Z,0.00
2018-07-02T02:09:01.287Z,0.00
2018-07-02T02:10:01.087Z,0.00
2018-07-02T02:11:01.140Z,0.00
2018-07-02T02:12:00.959Z,0.00
2018-07-02T02:13:00.907Z,0.00
2018-07-02T02:14:00.791Z,0.00
2018-07-02T02:15:00.818Z,0.00
2018-07-02T02:16:00.628Z,0.00
2018-07-02T02:17:00.627Z,0.00
2018-07-02T02:18:00.474Z,0.00
2018-07-02T02:19:00.454Z,0.00
2018-07-02T02:20:00.296Z,0.00
2018-07-02T02:21:00.343Z,0.00
2018-07-02T02:22:00.160Z,0.00
2018-07-02T02:23:00.156Z,0.00
2018-07-02T02:23:59.992Z,0.00
2018-07-02T02:24:59.957Z,0.00
2018-07-02T02:25:59.831Z,0.00
2018-07-02T02:26:59.772Z,0.00
2018-07-02T02:27:59.672Z,0.00
2018-07-02T02:28:59.719Z,0.00
2018-07-02T02:29:59.517Z,0.00
2018-07-02T02:30:59.491Z,0.00
2018-07-02T02:31:59.368Z,0.00
2018-07-02T02:32:59.294Z,0.00
2018-07-02T02:33:59.220Z,0.00
2018-07-02T02:34:59.208Z,0.00
2018-07-02T02:35:59.033Z,0.00
2018-07-02T02:36:59.011Z,0.00
2018-07-02T02:37:58.880Z,0.00
2018-07-02T02:38:58.837Z,0.00
2018-07-02T02:39:58.741Z,0.00
2018-07-02T02:40:58.646Z,0.00
2018-07-02T02:41:58.558Z,0.00
2018-07-02T02:42:58.595Z,0.00
2018-07-02T02:43:58.406Z,0.00
2018-07-02T02:44:58.355Z,0.00
2018-07-02T02:45:58.247Z,0.00
2018-07-02T02:46:58.254Z,0.00
2018-07-02T02:47:58.086Z,0.00
2018-07-02T02:48:58.122Z,0.00
2018-07-02T02:49:57.932Z,0.00
2018-07-02T02:50:57.882Z,0.00
2018-07-02T02:51:57.776Z,0.00
2018-07-02T02:52:57.790Z,0.00
2018-07-02T02:53:57.649Z,0.00
2018-07-02T02:54:57.602Z,0.00
2018-07-02T02:55:57.473Z,0.00
2018-07-02T02:56:57.414Z,0.00
2018-07-02T02:57:57.296Z,0.00
2018-07-02T02:58:57.324Z,0.00
2018-07-02T02:59:57.158Z,0.00
2018-07-02T03:00:57.128Z,0.00
2018-07-02T03:01:56.976Z,0.00
2018-07-02T03:02:56.952Z,0.00
2018-07-02T03:03:56.883Z,0.00
2018-07-02T03:04:56.889Z,0.00
2018-07-02T03:05:56.670Z,0.00
2018-07-02T03:06:56.657Z,0.00
2018-07-02T03:07:56.501Z,0.00
2018-07-02T03:08:56.470Z,0.00
2018-07-02T03:09:56.357Z,0.00
2018-07-02T03:10:56.419Z,5.63
2018-07-02T03:11:56.196Z,5.63
2018-07-02T03:12:56.181Z,5.63
2018-07-02T03:13:56.034Z,5.63
2018-07-02T03:14:55.988Z,5.63
2018-07-02T03:15:55.908Z,5.63
2018-07-02T03:16:55.902Z,5.63
2018-07-02T03:17:55.719Z,5.63
2018-07-02T03:18:55.724Z,5.63
2018-07-02T03:19:55.553Z,11.25
2018-07-02T03:20:55.516Z,11.25
2018-07-02T03:21:55.411Z,11.25
2018-07-02T03:22:55.438Z,11.25
2018-07-02T03:23:55.234Z,11.25
2018-07-02T03:24:55.239Z,11.25
2018-07-02T03:25:55.080Z,16.88
2018-07-02T03:26:55.091Z,16.88
2018-07-02T03:27:54.930Z,16.88
2018-07-02T03:28:54.961Z,16.88
2018-07-02T03:29:54.762Z,16.88
2018-07-02T03:30:54.769Z,16.88
2018-07-02T03:31:54.634Z,22.50
2018-07-02T03:34:36.715Z,22.50
2018-07-02T03:37:18.736Z,28.13
2018-07-02T03:38:18.671Z,28.13
2018-07-02T03:39:18.553Z,28.13
2018-07-02T03:40:18.585Z,28.13
2018-07-02T03:41:18.399Z,33.75
2018-07-02T03:42:19.444Z,33.75
2018-07-02T03:43:18.260Z,33.75
2018-07-02T03:44:18.199Z,33.75
2018-07-02T03:45:18.077Z,39.38
2018-07-02T03:47:42.739Z,39.38
2018-07-02T03:48:42.701Z,39.38
2018-07-02T03:49:42.566Z,45.00
2018-07-02T03:50:42.628Z,45.00
2018-07-02T03:51:42.400Z,45.00
2018-07-02T03:52:42.471Z,45.00
2018-07-02T03:53:42.269Z,50.63
2018-07-02T03:54:42.227Z,50.63
2018-07-02T03:55:42.079Z,50.63
2018-07-02T03:56:42.039Z,50.63
2018-07-02T03:57:41.930Z,56.25
2018-07-02T03:58:41.967Z,56.25
2018-07-02T03:59:41.759Z,56.25
2018-07-02T04:00:41.756Z,56.25
2018-07-02T04:01:41.600Z,61.88
2018-07-02T04:02:41.571Z,61.88
2018-07-02T04:03:41.492Z,61.88
2018-07-02T04:04:41.507Z,61.88
2018-07-02T04:05:41.305Z,67.50
2018-07-02T04:06:41.284Z,67.50
2018-07-02T04:07:41.154Z,67.50
2018-07-02T04:08:41.130Z,67.50
2018-07-02T04:09:41.019Z,67.50
2018-07-02T04:10:41.005Z,73.13
2018-07-02T04:11:40.819Z,73.13
2018-07-02T04:12:40.751Z,73.13
2018-07-02T04:13:40.683Z,73.13
2018-07-02T04:14:40.622Z,78.75
2018-07-02T04:15:40.529Z,78.75
2018-07-02T04:16:40.535Z,78.75
2018-07-02T04:17:40.417Z,78.75
2018-07-02T04:18:40.388Z,84.38
2018-07-02T04:19:40.180Z,84.38
2018-07-02T04:20:40.196Z,84.38
2018-07-02T04:21:40.049Z,84.38
2018-07-02T04:22:40.076Z,84.38
2018-07-02T04:23:39.884Z,90.00
2018-07-02T04:24:39.905Z,90.00
2018-07-02T04:25:39.711Z,90.00
2018-07-02T04:26:39.678Z,90.00
2018-07-02T04:27:39.548Z,90.00
2018-07-02T04:30:21.758Z,95.63
2018-07-02T04:31:21.743Z,95.63
2018-07-02T04:32:21.572Z,95.63
2018-07-02T04:33:21.594Z,101.25
2018-07-02T04:34:21.416Z,101.25
2018-07-02T04:35:21.367Z,101.25
2018-07-02T04:36:21.254Z,101.25
2018-07-02T04:37:21.189Z,101.25
2018-07-02T04:38:21.097Z,106.88
2018-07-02T04:39:21.026Z,106.88
2018-07-02T04:40:21.295Z,106.88
2018-07-02T04:41:20.896Z,106.88
2018-07-02T04:42:20.808Z,112.50
2018-07-02T04:43:20.755Z,112.50
2018-07-02T04:44:26.417Z,112.50
2018-07-02T04:45:20.578Z,112.50
2018-07-02T04:46:20.469Z,112.50
2018-07-02T04:47:20.390Z,118.13
2018-07-02T04:48:20.304Z,118.13
2018-07-02T04:49:20.228Z,118.13
2018-07-02T04:50:20.164Z,118.13
2018-07-02T04:51:20.129Z,118.13
2018-07-02T04:52:20.011Z,123.75
2018-07-02T04:55:02.241Z,123.75
2018-07-02T04:57:44.267Z,140.63
2018-07-02T04:58:44.155Z,151.88
2018-07-02T04:59:44.144Z,163.13
2018-07-02T05:00:44.007Z,174.38
2018-07-02T05:01:43.967Z,185.63
2018-07-02T05:02:43.855Z,196.88
2018-07-02T05:03:43.762Z,202.50
2018-07-02T05:05:10.393Z,202.50
2018-07-02T05:05:43.625Z,230.63
2018-07-02T05:06:43.548Z,180.00
2018-07-02T05:07:43.461Z,163.13
2018-07-02T05:08:44.381Z,157.50
2018-07-02T05:26:06.071Z,151.88
2018-07-02T05:27:05.798Z,151.88
2018-07-02T05:28:05.724Z,151.88
2018-07-02T05:29:05.655Z,151.88
2018-07-02T05:30:05.557Z,151.88
2018-07-02T05:32:47.758Z,157.50
2018-07-02T05:33:48.713Z,157.50
2018-07-02T05:34:47.596Z,157.50
2018-07-02T05:35:47.508Z,157.50
2018-07-02T05:36:47.436Z,157.50
2018-07-02T05:37:47.366Z,157.50
2018-07-02T05:38:47.319Z,157.50
2018-07-02T05:39:47.203Z,157.50
2018-07-02T05:40:47.108Z,163.13
2018-07-02T05:41:47.050Z,163.13
2018-07-02T05:42:46.974Z,163.13
2018-07-02T05:45:29.283Z,163.13
2018-07-02T05:46:29.182Z,163.13
2018-07-02T05:47:29.095Z,168.75
2018-07-02T05:50:11.279Z,168.75
2018-07-02T05:51:11.181Z,168.75
2018-07-02T05:52:11.097Z,168.75
2018-07-02T05:54:35.777Z,174.38
2018-07-02T05:55:35.683Z,174.38
2018-07-02T05:56:35.603Z,174.38
2018-07-02T05:57:35.514Z,174.38
2018-07-02T05:58:35.443Z,174.38
2018-07-02T05:59:35.365Z,174.38
2018-07-02T06:00:35.363Z,180.00
2018-07-02T06:03:17.284Z,180.00
2018-07-02T06:05:59.279Z,180.00
2018-07-02T06:06:59.289Z,185.63
2018-07-02T06:07:59.123Z,185.63
2018-07-02T06:08:59.097Z,185.63
2018-07-02T06:09:58.939Z,185.63
2018-07-02T06:10:58.964Z,185.63
2018-07-02T06:11:58.775Z,185.63
2018-07-02T06:12:58.820Z,185.63
2018-07-02T06:13:58.690Z,191.25
2018-07-02T06:14:58.656Z,191.25
2018-07-02T06:15:58.499Z,191.25
2018-07-02T06:16:58.474Z,191.25
2018-07-02T06:17:58.316Z,191.25
2018-07-02T06:18:58.344Z,191.25
2018-07-02T06:19:58.157Z,196.88
2018-07-02T06:20:58.104Z,196.88
2018-07-02T06:21:58.001Z,196.88
2018-07-02T06:24:22.755Z,202.50
2018-07-02T06:25:22.709Z,208.13
2018-07-02T06:26:22.625Z,208.13
2018-07-02T06:27:22.528Z,213.75
2018-07-02T06:28:22.474Z,219.38
2018-07-02T06:29:22.374Z,225.00
2018-07-02T06:30:22.336Z,225.00
2018-07-02T06:31:22.236Z,230.63
2018-07-02T06:32:22.148Z,247.50
2018-07-02T06:33:22.077Z,523.13
2018-07-02T06:34:21.983Z,1006.88
2018-07-02T06:37:04.288Z,1468.13
2018-07-02T06:38:04.192Z,1541.25
2018-07-02T06:39:04.111Z,1614.38
2018-07-02T06:40:04.033Z,1687.50
2018-07-02T06:41:03.953Z,1710.00
2018-07-02T06:42:03.981Z,1755.00
2018-07-02T06:43:03.823Z,1822.50
2018-07-02T06:44:03.724Z,1861.88
2018-07-02T06:45:03.638Z,1850.63
2018-07-02T06:48:48.792Z,1974.38
2018-07-02T06:49:47.721Z,1980.00
2018-07-02T06:50:47.649Z,1991.25
2018-07-02T07:05:25.584Z,2700.00
2018-07-02T07:06:25.491Z,2345.63
2018-07-02T07:07:25.426Z,2441.25
2018-07-02T07:08:25.355Z,2430.00
2018-07-02T07:09:25.364Z,2311.88
2018-07-02T07:10:25.222Z,1957.50
2018-07-02T07:11:25.166Z,1586.25
2018-07-02T07:12:25.078Z,1490.63
2018-07-02T07:13:25.012Z,1462.50
2018-07-02T07:14:24.981Z,1580.63
2018-07-02T07:15:24.878Z,1676.25
2018-07-02T07:16:24.830Z,1603.13
2018-07-02T07:19:06.823Z,1248.75
2018-07-02T07:20:06.728Z,1215.00
2018-07-02T07:21:06.643Z,1282.50
2018-07-02T07:22:06.617Z,1383.75
2018-07-02T07:23:06.509Z,1350.00
2018-07-02T07:25:48.901Z,1209.38
2018-07-02T07:26:48.731Z,1209.38
2018-07-02T07:27:48.646Z,1186.88
2018-07-02T07:30:30.813Z,1091.25
2018-07-02T07:31:30.727Z,1119.38
2018-07-02T07:32:30.653Z,1164.38
2018-07-02T07:35:12.854Z,1096.88
2018-07-02T07:36:12.738Z,1096.88
2018-07-02T07:37:12.651Z,1102.50
2018-07-02T07:38:12.585Z,1113.75
2018-07-02T07:39:12.507Z,1113.75
2018-07-02T07:40:12.455Z,1102.50
2018-07-02T07:41:12.460Z,1125.00
2018-07-02T07:43:54.287Z,1147.50
2018-07-02T07:44:54.266Z,1164.38
2018-07-02T07:45:54.179Z,1170.00
2018-07-02T07:46:54.167Z,1215.00
2018-07-02T07:47:54.025Z,1479.38
2018-07-02T07:50:36.515Z,3678.75
2018-07-02T08:12:17.079Z,3898.13
2018-07-02T08:13:15.978Z,4106.25
2018-07-02T08:14:15.918Z,4106.25
2018-07-02T08:15:15.872Z,4246.88
2018-07-02T08:16:15.808Z,4342.50
2018-07-02T08:17:15.757Z,4314.38
2018-07-02T08:18:15.664Z,4325.63
2018-07-02T08:19:15.616Z,4404.38
2018-07-02T08:20:15.605Z,4516.88
2018-07-02T08:21:15.453Z,4567.50
2018-07-02T08:22:16.423Z,4640.63
2018-07-02T08:23:15.333Z,4584.38
2018-07-02T08:24:15.251Z,4252.50
2018-07-02T08:25:15.186Z,4089.38
2018-07-02T08:26:15.152Z,4078.13
2018-07-02T08:27:15.201Z,4336.88
2018-07-02T08:28:15.015Z,4415.63
2018-07-02T08:29:14.921Z,4168.13
2018-07-02T08:30:14.867Z,2171.25
2018-07-02T08:31:14.821Z,3459.38
2018-07-02T08:32:14.746Z,4353.75
2018-07-02T08:33:14.698Z,4404.38
2018-07-02T08:34:14.617Z,4438.13
2018-07-02T08:35:14.532Z,4618.13
2018-07-02T08:36:14.471Z,4623.75
2018-07-02T08:37:14.417Z,4438.13
2018-07-02T08:38:15.496Z,4455.00
2018-07-02T08:39:14.275Z,4342.50
2018-07-02T08:41:56.314Z,4477.50
2018-07-02T08:44:38.361Z,4421.25
2018-07-02T08:47:20.326Z,4556.25
2018-07-02T08:48:20.267Z,4713.75
2018-07-02T08:49:20.218Z,4680.00
2018-07-02T08:52:02.339Z,4438.13
2018-07-02T08:54:44.380Z,4623.75
2018-07-02T08:57:26.316Z,4365.00
2018-07-02T08:58:26.282Z,4500.00
2018-07-02T08:59:26.361Z,4460.63
2018-07-02T09:00:26.142Z,4348.13
2018-07-02T09:10:18.187Z,4612.50
2018-07-02T09:11:18.127Z,4798.13
2018-07-02T09:12:18.025Z,3971.25
2018-07-02T09:13:17.982Z,4606.88
2018-07-02T09:14:17.912Z,4522.50
2018-07-02T09:15:18.009Z,4584.38
2018-07-02T09:16:17.807Z,4696.88
2018-07-02T09:17:17.729Z,4837.50
2018-07-02T09:18:17.647Z,4798.13
2018-07-02T09:19:17.603Z,4590.00
2018-07-02T09:20:17.544Z,4725.00
2018-07-02T09:21:17.496Z,5085.00
2018-07-02T09:22:17.391Z,5011.88
2018-07-02T09:23:17.344Z,4910.63
2018-07-02T09:24:17.283Z,4871.25
2018-07-02T09:26:59.366Z,4730.63
2018-07-02T09:27:59.283Z,4668.75
2018-07-02T09:28:59.203Z,4713.75
2018-07-02T09:29:59.203Z,4730.63
2018-07-02T09:30:59.113Z,4730.63
2018-07-02T09:33:41.340Z,4365.00
2018-07-02T09:34:41.305Z,4297.50
2018-07-02T09:35:41.221Z,4561.88
2018-07-02T09:36:41.183Z,4708.13
2018-07-02T09:37:41.062Z,4741.88
2018-07-02T09:38:41.297Z,4820.63
2018-07-02T09:39:41.171Z,4730.63
2018-07-02T09:40:41.229Z,4674.38
2018-07-02T09:41:41.316Z,4725.00
2018-07-02T09:42:40.757Z,4921.88
2018-07-02T09:43:40.713Z,4927.50
2018-07-02T09:44:40.633Z,4550.63
2018-07-02T09:45:40.552Z,4359.38
2018-07-02T09:46:40.533Z,4646.25
2018-07-02T09:47:40.458Z,4978.13
2018-07-02T09:48:40.372Z,4983.75
2018-07-02T09:49:40.310Z,4876.88
2018-07-02T09:50:40.242Z,4944.38
2018-07-02T09:51:40.245Z,1248.75
2018-07-02T09:52:40.132Z,4966.88
2018-07-02T09:53:40.045Z,4843.13
2018-07-02T09:54:39.993Z,4786.88
2018-07-02T09:55:39.915Z,4893.75
2018-07-02T09:56:39.874Z,4955.63
2018-07-02T09:57:39.783Z,4831.88
2018-07-02T09:58:39.828Z,4730.63
2018-07-02T09:59:39.666Z,4831.88
2018-07-02T10:00:39.627Z,4933.13
2018-07-02T10:01:39.559Z,4966.88
2018-07-02T10:02:39.496Z,5034.38
2018-07-02T10:03:39.441Z,5090.63
2018-07-02T10:06:21.366Z,4123.13
2018-07-02T10:07:21.299Z,2761.88
2018-07-02T10:08:21.212Z,5045.63
2018-07-02T10:11:03.365Z,5028.75
2018-07-02T10:12:03.301Z,4674.38
2018-07-02T10:13:03.260Z,5158.13
2018-07-02T10:14:03.178Z,5428.13
2018-07-02T10:15:03.101Z,5051.25
2018-07-02T10:17:45.405Z,4837.50
2018-07-02T10:18:45.310Z,5028.75
2018-07-02T10:19:45.230Z,4781.25
2018-07-02T10:20:45.176Z,4888.13
2018-07-02T10:21:45.114Z,5085.00
2018-07-02T10:22:45.522Z,4916.25
2018-07-02T10:23:45.075Z,4876.88
2018-07-02T10:24:45.105Z,5068.13
2018-07-02T10:25:45.200Z,5113.13
2018-07-02T10:26:45.505Z,4933.13
2018-07-02T10:27:44.780Z,5000.63
2018-07-02T10:28:44.687Z,5040.00
2018-07-02T10:29:44.621Z,5011.88
2018-07-02T10:32:26.885Z,4921.88
2018-07-02T10:33:26.840Z,4871.25
2018-07-02T10:34:26.744Z,4944.38
2018-07-02T10:35:26.670Z,4882.50
2018-07-02T10:36:26.629Z,4725.00
2018-07-02T10:37:26.562Z,4640.63
2018-07-02T10:38:26.508Z,4741.88
2018-07-02T10:39:26.429Z,4815.00
2018-07-02T10:40:26.362Z,4820.63
2018-07-02T10:43:08.377Z,4905.00
2018-07-02T10:44:08.337Z,5096.25
2018-07-02T10:45:08.253Z,5040.00
2018-07-02T10:46:08.203Z,5023.13
2018-07-02T10:47:08.130Z,5056.88
2018-07-02T10:48:08.111Z,4966.88
2018-07-02T10:49:08.037Z,5040.00
2018-07-02T10:50:07.947Z,4938.75
2018-07-02T10:51:07.886Z,4623.75
2018-07-02T10:52:07.827Z,4713.75
2018-07-02T10:53:07.786Z,4944.38
2018-07-02T10:54:07.706Z,4899.38
2018-07-02T10:55:07.650Z,4753.13
2018-07-02T10:56:07.575Z,4747.50
2018-07-02T10:57:07.506Z,4837.50
2018-07-02T10:58:07.485Z,4837.50
2018-07-02T10:59:07.406Z,4786.88
2018-07-02T11:00:07.354Z,4736.25
2018-07-02T11:01:07.269Z,4719.38
2018-07-02T11:02:07.220Z,4809.38
2018-07-02T11:03:07.172Z,4741.88
2018-07-02T11:04:07.078Z,4758.75
2018-07-02T11:05:07.036Z,4938.75
2018-07-02T11:07:48.884Z,4955.63
2018-07-02T11:08:48.847Z,5028.75
2018-07-02T11:09:48.799Z,4843.13
2018-07-02T11:10:48.795Z,4680.00
2018-07-02T11:11:48.885Z,4657.50
2018-07-02T11:12:49.475Z,4674.38
2018-07-02T11:13:49.384Z,4747.50
2018-07-02T11:14:48.565Z,4758.75
2018-07-02T11:15:48.423Z,4730.63
2018-07-02T11:16:48.323Z,4708.13
2018-07-02T11:17:48.248Z,4668.75
2018-07-02T11:18:48.277Z,4725.00
2018-07-02T11:19:48.139Z,4770.00
2018-07-02T11:20:49.888Z,4815.00
2018-07-02T11:21:48.010Z,4730.63
2018-07-02T11:24:29.886Z,3633.75
2018-07-02T11:25:29.848Z,2463.75
2018-07-02T11:26:29.968Z,2126.25
2018-07-02T11:27:29.707Z,2520.00
2018-07-02T11:28:29.638Z,3363.75
2018-07-02T11:29:29.606Z,4230.00
2018-07-02T11:30:29.551Z,4494.38
2018-07-02T11:31:29.515Z,4618.13
2018-07-02T11:32:29.379Z,4477.50
2018-07-02T11:35:11.386Z,4978.13
2018-07-02T11:36:11.413Z,4792.50
2018-07-02T11:37:11.268Z,4871.25
2018-07-02T11:38:11.202Z,4741.88
2018-07-02T11:39:11.152Z,4511.25
2018-07-02T11:40:11.117Z,4545.00
2018-07-02T11:41:11.033Z,4696.88
2018-07-02T11:42:10.987Z,4421.25
2018-07-02T11:43:10.879Z,4263.75
2018-07-02T11:44:10.835Z,4466.25
2018-07-02T11:45:10.784Z,4370.63
2018-07-02T11:46:10.744Z,4275.00
2018-07-02T11:47:10.669Z,4230.00
2018-07-02T11:48:10.593Z,4089.38
2018-07-02T11:49:10.532Z,4010.63
2018-07-02T11:51:52.489Z,4393.13
2018-07-02T11:52:52.341Z,4573.13
2018-07-02T11:53:52.378Z,4314.38
2018-07-02T11:54:52.488Z,4421.25
2018-07-02T11:55:52.530Z,4393.13
2018-07-02T11:56:52.651Z,4218.75
2018-07-02T11:57:52.018Z,4246.88
2018-07-02T11:58:54.006Z,2671.88
2018-07-02T11:59:51.893Z,596.25
2018-07-02T12:00:51.838Z,326.25
2018-07-02T12:01:51.787Z,303.75
2018-07-02T12:02:51.717Z,286.88
2018-07-02T12:03:51.660Z,281.25
2018-07-02T12:04:51.582Z,275.63
2018-07-02T12:05:51.502Z,270.00
2018-07-02T12:08:33.427Z,270.00
2018-07-02T12:09:33.317Z,270.00
2018-07-02T12:10:33.282Z,264.38
2018-07-02T12:13:15.389Z,264.38
2018-07-02T12:14:15.341Z,264.38
2018-07-02T12:15:15.250Z,264.38
2018-07-02T12:16:15.201Z,253.13
2018-07-02T12:17:15.110Z,253.13
2018-07-02T12:18:15.068Z,253.13
2018-07-02T12:19:14.987Z,264.38
2018-07-02T12:20:14.915Z,253.13
2018-07-02T12:21:14.835Z,253.13
2018-07-02T12:22:14.777Z,258.75
2018-07-02T12:23:14.748Z,258.75
2018-07-02T12:24:14.639Z,264.38
2018-07-02T12:25:14.566Z,258.75
2018-07-02T12:27:56.416Z,247.50
2018-07-02T12:28:56.326Z,247.50
2018-07-02T12:29:56.251Z,247.50
2018-07-02T12:30:56.200Z,247.50
2018-07-02T12:31:56.110Z,247.50
2018-07-02T12:32:56.067Z,247.50
2018-07-02T12:33:55.968Z,247.50
2018-07-02T12:34:55.926Z,247.50
2018-07-02T12:35:55.818Z,247.50
2018-07-02T12:36:55.890Z,247.50
2018-07-02T12:37:55.930Z,241.88
2018-07-02T12:38:55.735Z,241.88
2018-07-02T12:39:56.051Z,247.50
2018-07-02T12:40:55.482Z,241.88
2018-07-02T12:41:55.399Z,247.50
2018-07-02T12:44:37.420Z,247.50
2018-07-02T12:45:37.327Z,247.50
2018-07-02T12:46:37.275Z,247.50
2018-07-02T12:47:37.199Z,247.50
2018-07-02T12:48:37.164Z,241.88
2018-07-02T12:51:19.415Z,241.88
2018-07-02T12:52:19.347Z,253.13
2018-07-02T12:53:19.306Z,241.88
2018-07-02T12:54:19.401Z,241.88
2018-07-02T12:55:19.156Z,241.88
2018-07-02T12:56:19.071Z,241.88
2018-07-02T12:57:18.958Z,241.88
2018-07-02T13:00:00.967Z,236.25
2018-07-02T13:01:00.863Z,236.25
2018-07-02T13:02:00.785Z,236.25
2018-07-02T13:04:42.928Z,236.25
2018-07-02T13:05:42.833Z,230.63
2018-07-02T13:06:42.770Z,230.63
2018-07-02T13:07:42.702Z,230.63
2018-07-02T13:08:42.608Z,241.88
2018-07-02T13:11:24.929Z,241.88
2018-07-02T13:12:24.873Z,241.88
2018-07-02T13:13:24.771Z,241.88
2018-07-02T13:16:06.932Z,241.88
2018-07-02T13:17:06.842Z,241.88
2018-07-02T13:18:06.767Z,241.88
2018-07-02T13:19:06.710Z,241.88
2018-07-02T13:20:06.630Z,241.88
2018-07-02T13:21:06.575Z,241.88
2018-07-02T13:22:06.503Z,241.88
2018-07-02T13:24:48.446Z,241.88
2018-07-02T13:25:48.349Z,241.88
2018-07-02T13:26:48.305Z,241.88
2018-07-02T13:27:48.208Z,241.88
2018-07-02T13:28:48.128Z,241.88
2018-07-02T13:29:48.065Z,241.88
2018-07-02T13:30:47.975Z,241.88
2018-07-02T13:31:47.952Z,236.25
2018-07-02T13:32:47.849Z,236.25
2018-07-02T13:33:47.768Z,236.25
2018-07-02T13:34:47.688Z,236.25
2018-07-02T13:35:47.641Z,236.25
2018-07-02T13:36:47.574Z,241.88
2018-07-02T13:37:47.528Z,241.88
2018-07-02T13:38:47.420Z,241.88
2018-07-02T13:39:47.344Z,247.50
2018-07-02T13:40:47.257Z,241.88
2018-07-02T13:41:47.204Z,241.88
2018-07-02T13:42:47.108Z,241.88
2018-07-02T13:43:47.067Z,236.25
2018-07-02T13:44:46.970Z,236.25
2018-07-02T13:47:28.960Z,230.63
2018-07-02T13:50:10.939Z,230.63
2018-07-02T13:51:10.912Z,230.63
2018-07-02T13:52:10.788Z,230.63
2018-07-02T13:53:10.757Z,230.63
2018-07-02T13:54:10.671Z,230.63
2018-07-02T13:55:10.611Z,225.00
2018-07-02T13:56:10.523Z,225.00
2018-07-02T13:57:10.464Z,225.00
2018-07-02T13:58:10.398Z,225.00
2018-07-02T13:59:10.290Z,225.00
2018-07-02T14:00:10.276Z,225.00
2018-07-02T14:01:10.161Z,225.00
2018-07-02T14:02:10.070Z,225.00
2018-07-02T14:03:10.063Z,219.38
2018-07-02T14:04:09.936Z,219.38
2018-07-02T14:05:09.847Z,219.38
2018-07-02T14:06:09.765Z,219.38
2018-07-02T14:07:09.726Z,219.38
2018-07-02T14:08:09.654Z,219.38
2018-07-02T14:10:51.931Z,213.75
2018-07-02T14:11:51.864Z,213.75
2018-07-02T14:12:51.822Z,208.13
2018-07-02T14:13:51.730Z,213.75
2018-07-02T14:14:51.649Z,208.13
2018-07-02T14:15:51.582Z,208.13
2018-07-02T14:16:51.502Z,213.75
2018-07-02T14:17:51.445Z,213.75
2018-07-02T14:18:51.357Z,213.75
2018-07-02T14:21:33.442Z,213.75
2018-07-02T14:22:33.375Z,219.38
2018-07-02T14:23:33.322Z,213.75
2018-07-02T14:24:33.243Z,208.13
2018-07-02T14:25:33.167Z,208.13
2018-07-02T14:26:33.128Z,208.13
2018-07-02T14:27:33.008Z,208.13
2018-07-02T14:28:32.953Z,208.13
2018-07-02T14:29:32.863Z,208.13
2018-07-02T14:32:14.940Z,202.50
2018-07-02T14:33:14.922Z,202.50
2018-07-02T14:34:14.851Z,196.88
2018-07-02T14:35:14.740Z,202.50
2018-07-02T14:36:14.642Z,202.50
2018-07-02T14:37:14.585Z,202.50
2018-07-02T14:38:14.509Z,202.50
2018-07-02T14:39:14.646Z,202.50
2018-07-02T14:40:14.361Z,202.50
2018-07-02T14:42:56.454Z,202.50
2018-07-02T14:43:56.400Z,202.50
2018-07-02T14:44:56.444Z,202.50
2018-07-02T14:45:56.253Z,202.50
2018-07-02T14:46:56.171Z,202.50
2018-07-02T14:47:56.136Z,202.50
2018-07-02T14:48:56.029Z,202.50
2018-07-02T14:49:55.972Z,196.88
2018-07-02T14:50:55.905Z,196.88
2018-07-02T14:51:55.830Z,196.88
2018-07-02T14:52:55.725Z,196.88
2018-07-02T14:55:37.983Z,196.88
2018-07-02T14:56:37.904Z,196.88
2018-07-02T14:57:37.793Z,196.88
2018-07-02T14:58:37.726Z,196.88
2018-07-02T14:59:37.745Z,196.88
2018-07-02T15:00:37.590Z,196.88
2018-07-02T15:01:37.521Z,196.88
2018-07-02T15:02:37.446Z,196.88
2018-07-02T15:03:37.361Z,191.25
2018-07-02T15:04:37.327Z,196.88
2018-07-02T15:05:37.254Z,196.88
2018-07-02T15:06:37.278Z,196.88
2018-07-02T15:07:37.071Z,196.88
2018-07-02T15:08:37.008Z,191.25
2018-07-02T15:09:36.941Z,196.88
2018-07-02T15:10:38.051Z,191.25
2018-07-02T15:11:36.834Z,191.25
2018-07-02T15:12:36.721Z,191.25
2018-07-02T15:13:36.644Z,191.25
2018-07-02T15:14:36.575Z,191.25
2018-07-02T15:15:36.588Z,191.25
2018-07-02T15:16:37.454Z,191.25
2018-07-02T15:17:36.373Z,191.25
2018-07-02T15:18:36.288Z,191.25
2018-07-02T15:19:36.215Z,191.25
2018-07-02T15:20:36.158Z,191.25
2018-07-02T15:21:36.093Z,191.25
2018-07-02T15:22:36.050Z,185.63
2018-07-02T15:23:35.930Z,191.25
2018-07-02T15:26:18.026Z,185.63
2018-07-02T15:27:17.910Z,185.63
2018-07-02T15:28:17.811Z,185.63
2018-07-02T15:29:17.757Z,180.00
2018-07-02T15:30:17.672Z,185.63
2018-07-02T15:31:18.617Z,180.00
2018-07-02T15:32:17.523Z,180.00
2018-07-02T15:33:17.478Z,180.00
2018-07-02T15:34:17.369Z,180.00